sensor_id;sensor_type;location;lat;lon;timestamp;P1;durP1;ratioP1;P2;durP2;ratioP2
45887;SDS011;31595;51.418;7.572;2023-05-02T00:00:51;16.25;;;13.57;;
45887;SDS011;31595;51.418;7.572;2023-05-02T00:03:19;16.08;;;13.55;;
45887;SDS011;31595;51.418;7.572;2023-05-02T00:05:46;15.38;;;13.77;;
45887;SDS011;31595;51.418;7.572;2023-05-02T00:08:15;19.83;;;15.68;;
45887;SDS011;31595;51.418;7.572;2023-05-02T00:10:42;15.52;;;13.50;;
45887;SDS011;31595;51.418;7.572;2023-05-02T00:13:09;17.60;;;14.98;;
45887;SDS011;31595;51.418;7.572;2023-05-02T00:15:37;17.80;;;15.15;;
45887;SDS011;31595;51.418;7.572;2023-05-02T00:18:04;16.90;;;15.18;;
45887;SDS011;31595;51.418;7.572;2023-05-02T00:20:31;18.25;;;16.05;;
45887;SDS011;31595;51.418;7.572;2023-05-02T00:22:58;16.77;;;15.02;;
45887;SDS011;31595;51.418;7.572;2023-05-02T00:25:27;16.80;;;15.00;;
45887;SDS011;31595;51.418;7.572;2023-05-02T00:27:54;18.88;;;16.50;;
45887;SDS011;31595;51.418;7.572;2023-05-02T00:30:21;16.17;;;14.52;;
45887;SDS011;31595;51.418;7.572;2023-05-02T00:32:50;19.52;;;17.42;;
45887;SDS011;31595;51.418;7.572;2023-05-02T00:35:18;17.50;;;15.32;;
45887;SDS011;31595;51.418;7.572;2023-05-02T00:37:46;20.38;;;16.23;;
45887;SDS011;31595;51.418;7.572;2023-05-02T00:40:13;19.25;;;16.10;;
45887;SDS011;31595;51.418;7.572;2023-05-02T00:42:42;19.35;;;16.65;;
45887;SDS011;31595;51.418;7.572;2023-05-02T00:45:09;19.48;;;17.08;;
45887;SDS011;31595;51.418;7.572;2023-05-02T00:47:37;19.85;;;17.38;;
45887;SDS011;31595;51.418;7.572;2023-05-02T00:50:04;21.33;;;17.98;;
45887;SDS011;31595;51.418;7.572;2023-05-02T00:52:32;21.15;;;18.90;;
45887;SDS011;31595;51.418;7.572;2023-05-02T00:55:00;22.10;;;19.80;;
45887;SDS011;31595;51.418;7.572;2023-05-02T00:57:28;24.15;;;19.77;;
45887;SDS011;31595;51.418;7.572;2023-05-02T00:59:57;20.80;;;18.60;;
45887;SDS011;31595;51.418;7.572;2023-05-02T01:02:29;22.77;;;19.48;;
45887;SDS011;31595;51.418;7.572;2023-05-02T01:05:04;25.08;;;20.40;;
45887;SDS011;31595;51.418;7.572;2023-05-02T01:07:51;24.13;;;20.25;;
45887;SDS011;31595;51.418;7.572;2023-05-02T01:10:29;25.95;;;21.60;;
45887;SDS011;31595;51.418;7.572;2023-05-02T01:13:11;21.92;;;19.48;;
45887;SDS011;31595;51.418;7.572;2023-05-02T01:15:44;22.80;;;19.65;;
45887;SDS011;31595;51.418;7.572;2023-05-02T01:18:20;24.70;;;21.88;;
45887;SDS011;31595;51.418;7.572;2023-05-02T01:20:51;24.92;;;20.83;;
45887;SDS011;31595;51.418;7.572;2023-05-02T01:23:24;23.48;;;20.75;;
45887;SDS011;31595;51.418;7.572;2023-05-02T01:25:59;25.50;;;21.35;;
45887;SDS011;31595;51.418;7.572;2023-05-02T01:31:12;26.08;;;22.83;;
45887;SDS011;31595;51.418;7.572;2023-05-02T01:33:41;25.48;;;22.10;;
45887;SDS011;31595;51.418;7.572;2023-05-02T01:36:12;26.13;;;23.33;;
45887;SDS011;31595;51.418;7.572;2023-05-02T01:38:41;26.38;;;23.27;;
45887;SDS011;31595;51.418;7.572;2023-05-02T01:41:10;24.83;;;22.13;;
45887;SDS011;31595;51.418;7.572;2023-05-02T01:43:38;28.45;;;24.45;;
45887;SDS011;31595;51.418;7.572;2023-05-02T01:46:09;26.83;;;23.92;;
45887;SDS011;31595;51.418;7.572;2023-05-02T01:48:41;26.77;;;23.75;;
45887;SDS011;31595;51.418;7.572;2023-05-02T01:51:12;28.92;;;23.88;;
45887;SDS011;31595;51.418;7.572;2023-05-02T01:53:43;28.35;;;22.38;;
45887;SDS011;31595;51.418;7.572;2023-05-02T01:56:11;26.38;;;23.30;;
45887;SDS011;31595;51.418;7.572;2023-05-02T02:01:12;28.67;;;22.40;;
45887;SDS011;31595;51.418;7.572;2023-05-02T02:03:40;30.77;;;23.58;;
45887;SDS011;31595;51.418;7.572;2023-05-02T02:06:08;28.42;;;23.17;;
45887;SDS011;31595;51.418;7.572;2023-05-02T02:08:37;30.15;;;25.15;;
45887;SDS011;31595;51.418;7.572;2023-05-02T02:11:06;30.73;;;24.83;;
45887;SDS011;31595;51.418;7.572;2023-05-02T02:13:38;32.33;;;27.15;;
45887;SDS011;31595;51.418;7.572;2023-05-02T02:16:12;31.98;;;25.90;;
45887;SDS011;31595;51.418;7.572;2023-05-02T02:18:44;30.98;;;25.90;;
45887;SDS011;31595;51.418;7.572;2023-05-02T02:21:12;33.38;;;27.30;;
45887;SDS011;31595;51.418;7.572;2023-05-02T02:23:44;32.22;;;25.48;;
45887;SDS011;31595;51.418;7.572;2023-05-02T02:26:14;30.13;;;24.70;;
45887;SDS011;31595;51.418;7.572;2023-05-02T02:28:43;32.15;;;27.23;;
45887;SDS011;31595;51.418;7.572;2023-05-02T02:31:15;32.70;;;27.02;;
45887;SDS011;31595;51.418;7.572;2023-05-02T02:33:45;32.05;;;25.95;;
45887;SDS011;31595;51.418;7.572;2023-05-02T02:36:14;30.52;;;25.52;;
45887;SDS011;31595;51.418;7.572;2023-05-02T02:38:48;31.42;;;25.95;;
45887;SDS011;31595;51.418;7.572;2023-05-02T02:41:24;32.70;;;27.27;;
45887;SDS011;31595;51.418;7.572;2023-05-02T02:43:57;34.80;;;27.95;;
45887;SDS011;31595;51.418;7.572;2023-05-02T02:46:33;34.10;;;26.15;;
45887;SDS011;31595;51.418;7.572;2023-05-02T02:49:14;34.30;;;27.35;;
45887;SDS011;31595;51.418;7.572;2023-05-02T02:51:53;33.28;;;27.70;;
45887;SDS011;31595;51.418;7.572;2023-05-02T02:54:29;36.35;;;28.38;;
45887;SDS011;31595;51.418;7.572;2023-05-02T02:57:03;35.92;;;27.40;;
45887;SDS011;31595;51.418;7.572;2023-05-02T02:59:41;34.88;;;28.50;;
45887;SDS011;31595;51.418;7.572;2023-05-02T03:02:18;35.58;;;27.58;;
45887;SDS011;31595;51.418;7.572;2023-05-02T03:04:53;36.58;;;26.42;;
45887;SDS011;31595;51.418;7.572;2023-05-02T03:07:22;35.58;;;27.70;;
45887;SDS011;31595;51.418;7.572;2023-05-02T03:09:53;33.78;;;26.77;;
45887;SDS011;31595;51.418;7.572;2023-05-02T03:12:20;36.08;;;28.35;;
45887;SDS011;31595;51.418;7.572;2023-05-02T03:14:47;35.83;;;29.98;;
45887;SDS011;31595;51.418;7.572;2023-05-02T03:17:15;34.28;;;26.65;;
45887;SDS011;31595;51.418;7.572;2023-05-02T03:19:43;36.70;;;27.27;;
45887;SDS011;31595;51.418;7.572;2023-05-02T03:22:11;33.70;;;26.60;;
45887;SDS011;31595;51.418;7.572;2023-05-02T03:24:39;42.72;;;25.30;;
45887;SDS011;31595;51.418;7.572;2023-05-02T03:27:06;33.40;;;25.08;;
45887;SDS011;31595;51.418;7.572;2023-05-02T03:29:33;31.38;;;24.15;;
45887;SDS011;31595;51.418;7.572;2023-05-02T03:32:00;30.02;;;23.85;;
45887;SDS011;31595;51.418;7.572;2023-05-02T03:34:28;32.45;;;24.98;;
45887;SDS011;31595;51.418;7.572;2023-05-02T03:36:56;32.15;;;24.95;;
45887;SDS011;31595;51.418;7.572;2023-05-02T03:39:24;33.07;;;24.73;;
45887;SDS011;31595;51.418;7.572;2023-05-02T03:41:51;32.30;;;24.15;;
45887;SDS011;31595;51.418;7.572;2023-05-02T03:44:18;29.33;;;23.13;;
45887;SDS011;31595;51.418;7.572;2023-05-02T03:46:45;29.20;;;22.33;;
45887;SDS011;31595;51.418;7.572;2023-05-02T03:49:13;27.88;;;21.27;;
45887;SDS011;31595;51.418;7.572;2023-05-02T03:51:40;25.42;;;19.63;;
45887;SDS011;31595;51.418;7.572;2023-05-02T03:54:09;28.30;;;20.10;;
45887;SDS011;31595;51.418;7.572;2023-05-02T03:56:36;25.35;;;19.23;;
45887;SDS011;31595;51.418;7.572;2023-05-02T03:59:03;26.20;;;19.38;;
45887;SDS011;31595;51.418;7.572;2023-05-02T04:01:31;25.13;;;18.83;;
45887;SDS011;31595;51.418;7.572;2023-05-02T04:03:58;27.90;;;19.98;;
45887;SDS011;31595;51.418;7.572;2023-05-02T04:06:25;29.05;;;20.35;;
45887;SDS011;31595;51.418;7.572;2023-05-02T04:08:52;25.67;;;18.63;;
45887;SDS011;31595;51.418;7.572;2023-05-02T04:11:24;24.70;;;18.02;;
45887;SDS011;31595;51.418;7.572;2023-05-02T04:13:55;27.35;;;19.60;;
45887;SDS011;31595;51.418;7.572;2023-05-02T04:16:22;24.38;;;18.67;;
45887;SDS011;31595;51.418;7.572;2023-05-02T04:18:49;24.25;;;18.33;;
45887;SDS011;31595;51.418;7.572;2023-05-02T04:21:18;26.20;;;17.50;;
45887;SDS011;31595;51.418;7.572;2023-05-02T04:23:45;23.85;;;17.40;;
45887;SDS011;31595;51.418;7.572;2023-05-02T04:26:13;23.40;;;17.30;;
45887;SDS011;31595;51.418;7.572;2023-05-02T04:28:42;23.10;;;16.90;;
45887;SDS011;31595;51.418;7.572;2023-05-02T04:31:09;20.92;;;15.98;;
45887;SDS011;31595;51.418;7.572;2023-05-02T04:33:36;21.77;;;14.57;;
45887;SDS011;31595;51.418;7.572;2023-05-02T04:36:04;21.00;;;15.45;;
45887;SDS011;31595;51.418;7.572;2023-05-02T04:38:32;20.33;;;14.75;;
45887;SDS011;31595;51.418;7.572;2023-05-02T04:40:59;23.40;;;15.77;;
45887;SDS011;31595;51.418;7.572;2023-05-02T04:43:26;20.25;;;15.00;;
45887;SDS011;31595;51.418;7.572;2023-05-02T04:45:55;19.60;;;15.05;;
45887;SDS011;31595;51.418;7.572;2023-05-02T04:48:23;21.83;;;15.55;;
45887;SDS011;31595;51.418;7.572;2023-05-02T04:50:55;19.88;;;15.35;;
45887;SDS011;31595;51.418;7.572;2023-05-02T04:53:23;20.33;;;15.32;;
45887;SDS011;31595;51.418;7.572;2023-05-02T04:55:52;27.05;;;16.23;;
45887;SDS011;31595;51.418;7.572;2023-05-02T04:58:19;20.65;;;15.38;;
45887;SDS011;31595;51.418;7.572;2023-05-02T05:00:48;19.30;;;13.52;;
45887;SDS011;31595;51.418;7.572;2023-05-02T05:03:17;21.92;;;14.73;;
45887;SDS011;31595;51.418;7.572;2023-05-02T05:05:44;19.33;;;14.20;;
45887;SDS011;31595;51.418;7.572;2023-05-02T05:08:11;20.95;;;14.32;;
45887;SDS011;31595;51.418;7.572;2023-05-02T05:10:39;20.75;;;15.07;;
45887;SDS011;31595;51.418;7.572;2023-05-02T05:13:06;18.80;;;13.80;;
45887;SDS011;31595;51.418;7.572;2023-05-02T05:15:33;22.20;;;15.02;;
45887;SDS011;31595;51.418;7.572;2023-05-02T05:18:01;16.90;;;13.68;;
45887;SDS011;31595;51.418;7.572;2023-05-02T05:20:30;21.27;;;15.18;;
45887;SDS011;31595;51.418;7.572;2023-05-02T05:22:58;18.02;;;13.98;;
45887;SDS011;31595;51.418;7.572;2023-05-02T05:25:25;19.70;;;14.65;;
45887;SDS011;31595;51.418;7.572;2023-05-02T05:27:52;21.45;;;15.45;;
45887;SDS011;31595;51.418;7.572;2023-05-02T05:30:20;21.83;;;16.42;;
45887;SDS011;31595;51.418;7.572;2023-05-02T05:32:48;23.20;;;16.38;;
45887;SDS011;31595;51.418;7.572;2023-05-02T05:35:15;20.90;;;14.55;;
45887;SDS011;31595;51.418;7.572;2023-05-02T05:37:44;19.85;;;15.70;;
45887;SDS011;31595;51.418;7.572;2023-05-02T05:40:11;21.25;;;16.58;;
45887;SDS011;31595;51.418;7.572;2023-05-02T05:42:39;23.95;;;17.98;;
45887;SDS011;31595;51.418;7.572;2023-05-02T05:45:06;25.05;;;18.35;;
45887;SDS011;31595;51.418;7.572;2023-05-02T05:47:34;25.10;;;18.20;;
45887;SDS011;31595;51.418;7.572;2023-05-02T05:50:02;26.58;;;19.00;;
45887;SDS011;31595;51.418;7.572;2023-05-02T05:52:29;25.05;;;18.20;;
45887;SDS011;31595;51.418;7.572;2023-05-02T05:54:58;25.00;;;17.55;;
45887;SDS011;31595;51.418;7.572;2023-05-02T05:57:25;20.52;;;15.93;;
45887;SDS011;31595;51.418;7.572;2023-05-02T05:59:53;21.48;;;16.63;;
45887;SDS011;31595;51.418;7.572;2023-05-02T06:02:20;21.40;;;16.30;;
45887;SDS011;31595;51.418;7.572;2023-05-02T06:04:47;20.65;;;15.90;;
45887;SDS011;31595;51.418;7.572;2023-05-02T06:07:15;16.95;;;14.45;;
45887;SDS011;31595;51.418;7.572;2023-05-02T06:09:42;16.42;;;12.32;;
45887;SDS011;31595;51.418;7.572;2023-05-02T06:12:10;11.85;;;10.35;;
45887;SDS011;31595;51.418;7.572;2023-05-02T06:14:38;11.93;;;9.73;;
45887;SDS011;31595;51.418;7.572;2023-05-02T06:17:05;11.30;;;8.88;;
45887;SDS011;31595;51.418;7.572;2023-05-02T06:19:32;9.50;;;7.97;;
45887;SDS011;31595;51.418;7.572;2023-05-02T06:22:00;10.80;;;8.25;;
45887;SDS011;31595;51.418;7.572;2023-05-02T06:24:27;9.43;;;7.72;;
45887;SDS011;31595;51.418;7.572;2023-05-02T06:26:54;10.35;;;7.93;;
45887;SDS011;31595;51.418;7.572;2023-05-02T06:29:23;11.43;;;7.68;;
45887;SDS011;31595;51.418;7.572;2023-05-02T06:31:53;9.48;;;7.53;;
45887;SDS011;31595;51.418;7.572;2023-05-02T06:34:21;8.88;;;5.35;;
45887;SDS011;31595;51.418;7.572;2023-05-02T06:36:48;6.55;;;5.43;;
45887;SDS011;31595;51.418;7.572;2023-05-02T06:39:20;6.68;;;5.10;;
45887;SDS011;31595;51.418;7.572;2023-05-02T06:41:47;6.43;;;4.22;;
45887;SDS011;31595;51.418;7.572;2023-05-02T06:44:14;6.80;;;4.35;;
45887;SDS011;31595;51.418;7.572;2023-05-02T06:46:43;6.57;;;3.90;;
45887;SDS011;31595;51.418;7.572;2023-05-02T06:49:10;5.22;;;3.97;;
45887;SDS011;31595;51.418;7.572;2023-05-02T06:51:37;6.43;;;3.70;;
45887;SDS011;31595;51.418;7.572;2023-05-02T06:54:05;6.18;;;3.25;;
45887;SDS011;31595;51.418;7.572;2023-05-02T06:56:33;3.90;;;3.08;;
45887;SDS011;31595;51.418;7.572;2023-05-02T06:59:00;4.68;;;3.22;;
45887;SDS011;31595;51.418;7.572;2023-05-02T07:01:28;5.20;;;3.38;;
45887;SDS011;31595;51.418;7.572;2023-05-02T07:03:56;4.40;;;3.08;;
45887;SDS011;31595;51.418;7.572;2023-05-02T07:06:23;9.15;;;3.28;;
45887;SDS011;31595;51.418;7.572;2023-05-02T07:08:51;5.88;;;3.00;;
45887;SDS011;31595;51.418;7.572;2023-05-02T07:11:18;5.95;;;3.50;;
45887;SDS011;31595;51.418;7.572;2023-05-02T07:13:48;6.43;;;3.15;;
45887;SDS011;31595;51.418;7.572;2023-05-02T07:16:15;6.13;;;3.03;;
45887;SDS011;31595;51.418;7.572;2023-05-02T07:18:42;5.88;;;2.97;;
45887;SDS011;31595;51.418;7.572;2023-05-02T07:21:11;5.53;;;3.30;;
45887;SDS011;31595;51.418;7.572;2023-05-02T07:23:39;5.05;;;3.03;;
45887;SDS011;31595;51.418;7.572;2023-05-02T07:26:06;5.05;;;3.30;;
45887;SDS011;31595;51.418;7.572;2023-05-02T07:28:33;6.13;;;3.30;;
45887;SDS011;31595;51.418;7.572;2023-05-02T07:31:01;4.20;;;3.10;;
45887;SDS011;31595;51.418;7.572;2023-05-02T07:33:28;5.45;;;3.03;;
45887;SDS011;31595;51.418;7.572;2023-05-02T07:35:55;6.15;;;3.45;;
45887;SDS011;31595;51.418;7.572;2023-05-02T07:38:24;5.38;;;3.70;;
45887;SDS011;31595;51.418;7.572;2023-05-02T07:40:56;5.45;;;3.42;;
45887;SDS011;31595;51.418;7.572;2023-05-02T07:43:23;4.55;;;2.83;;
45887;SDS011;31595;51.418;7.572;2023-05-02T07:45:51;7.70;;;3.38;;
45887;SDS011;31595;51.418;7.572;2023-05-02T07:48:18;5.43;;;3.45;;
45887;SDS011;31595;51.418;7.572;2023-05-02T07:50:46;6.40;;;3.10;;
45887;SDS011;31595;51.418;7.572;2023-05-02T07:53:13;6.60;;;3.75;;
45887;SDS011;31595;51.418;7.572;2023-05-02T07:55:42;4.57;;;3.22;;
45887;SDS011;31595;51.418;7.572;2023-05-02T07:58:09;4.68;;;3.30;;
45887;SDS011;31595;51.418;7.572;2023-05-02T08:00:36;7.95;;;4.22;;
45887;SDS011;31595;51.418;7.572;2023-05-02T08:03:04;7.70;;;3.00;;
45887;SDS011;31595;51.418;7.572;2023-05-02T08:05:32;5.15;;;3.00;;
45887;SDS011;31595;51.418;7.572;2023-05-02T08:07:59;5.63;;;2.85;;
45887;SDS011;31595;51.418;7.572;2023-05-02T08:10:27;5.43;;;2.90;;
45887;SDS011;31595;51.418;7.572;2023-05-02T08:12:55;4.47;;;2.60;;
45887;SDS011;31595;51.418;7.572;2023-05-02T08:15:23;6.03;;;3.40;;
45887;SDS011;31595;51.418;7.572;2023-05-02T08:17:50;5.43;;;3.20;;
45887;SDS011;31595;51.418;7.572;2023-05-02T08:20:17;6.85;;;3.80;;
45887;SDS011;31595;51.418;7.572;2023-05-02T08:22:44;6.65;;;3.70;;
45887;SDS011;31595;51.418;7.572;2023-05-02T08:25:12;4.50;;;4.00;;
45887;SDS011;31595;51.418;7.572;2023-05-02T08:27:39;2.30;;;1.60;;
45887;SDS011;31595;51.418;7.572;2023-05-02T08:30:08;2.47;;;1.63;;
45887;SDS011;31595;51.418;7.572;2023-05-02T08:32:36;3.80;;;1.40;;
45887;SDS011;31595;51.418;7.572;2023-05-02T08:35:03;2.60;;;1.60;;
45887;SDS011;31595;51.418;7.572;2023-05-02T08:37:31;1.90;;;1.42;;
45887;SDS011;31595;51.418;7.572;2023-05-02T08:39:58;2.28;;;1.40;;
45887;SDS011;31595;51.418;7.572;2023-05-02T08:42:26;3.28;;;2.10;;
45887;SDS011;31595;51.418;7.572;2023-05-02T08:44:54;4.10;;;2.35;;
45887;SDS011;31595;51.418;7.572;2023-05-02T08:47:23;3.42;;;2.30;;
45887;SDS011;31595;51.418;7.572;2023-05-02T08:49:53;2.72;;;2.25;;
45887;SDS011;31595;51.418;7.572;2023-05-02T08:52:22;3.90;;;2.30;;
45887;SDS011;31595;51.418;7.572;2023-05-02T08:54:50;6.55;;;2.67;;
45887;SDS011;31595;51.418;7.572;2023-05-02T08:57:19;5.57;;;2.50;;
45887;SDS011;31595;51.418;7.572;2023-05-02T08:59:46;5.10;;;2.70;;
45887;SDS011;31595;51.418;7.572;2023-05-02T09:02:17;8.48;;;2.60;;
45887;SDS011;31595;51.418;7.572;2023-05-02T09:04:55;4.85;;;2.70;;
45887;SDS011;31595;51.418;7.572;2023-05-02T09:07:26;5.28;;;2.50;;
45887;SDS011;31595;51.418;7.572;2023-05-02T09:09:53;6.35;;;2.65;;
45887;SDS011;31595;51.418;7.572;2023-05-02T09:12:23;5.47;;;2.50;;
45887;SDS011;31595;51.418;7.572;2023-05-02T09:17:40;5.07;;;2.97;;
45887;SDS011;31595;51.418;7.572;2023-05-02T09:20:09;7.72;;;3.58;;
45887;SDS011;31595;51.418;7.572;2023-05-02T09:22:37;9.20;;;3.90;;
45887;SDS011;31595;51.418;7.572;2023-05-02T09:25:05;9.75;;;4.25;;
45887;SDS011;31595;51.418;7.572;2023-05-02T09:27:48;7.45;;;4.68;;
45887;SDS011;31595;51.418;7.572;2023-05-02T09:30:17;9.38;;;5.75;;
45887;SDS011;31595;51.418;7.572;2023-05-02T09:32:47;12.18;;;7.30;;
45887;SDS011;31595;51.418;7.572;2023-05-02T09:35:16;10.95;;;6.30;;
45887;SDS011;31595;51.418;7.572;2023-05-02T09:37:49;8.52;;;6.32;;
45887;SDS011;31595;51.418;7.572;2023-05-02T09:40:17;8.18;;;5.80;;
45887;SDS011;31595;51.418;7.572;2023-05-02T09:42:45;10.65;;;5.57;;
45887;SDS011;31595;51.418;7.572;2023-05-02T09:45:19;8.38;;;6.00;;
45887;SDS011;31595;51.418;7.572;2023-05-02T09:47:49;8.60;;;5.57;;
45887;SDS011;31595;51.418;7.572;2023-05-02T09:50:32;9.00;;;5.32;;
45887;SDS011;31595;51.418;7.572;2023-05-02T09:55:34;6.13;;;3.40;;
45887;SDS011;31595;51.418;7.572;2023-05-02T09:58:01;5.55;;;3.50;;
45887;SDS011;31595;51.418;7.572;2023-05-02T10:00:39;7.38;;;4.30;;
45887;SDS011;31595;51.418;7.572;2023-05-02T10:03:09;6.50;;;4.72;;
45887;SDS011;31595;51.418;7.572;2023-05-02T10:05:37;6.28;;;4.10;;
45887;SDS011;31595;51.418;7.572;2023-05-02T10:08:05;18.75;;;6.00;;
45887;SDS011;31595;51.418;7.572;2023-05-02T10:10:35;6.47;;;3.85;;
45887;SDS011;31595;51.418;7.572;2023-05-02T10:13:03;6.67;;;4.30;;
45887;SDS011;31595;51.418;7.572;2023-05-02T10:15:31;5.78;;;3.53;;
45887;SDS011;31595;51.418;7.572;2023-05-02T10:18:00;8.63;;;4.28;;
45887;SDS011;31595;51.418;7.572;2023-05-02T10:20:36;6.80;;;3.67;;
45887;SDS011;31595;51.418;7.572;2023-05-02T10:23:09;6.75;;;3.30;;
45887;SDS011;31595;51.418;7.572;2023-05-02T10:25:38;6.78;;;3.65;;
45887;SDS011;31595;51.418;7.572;2023-05-02T10:28:05;6.72;;;4.13;;
45887;SDS011;31595;51.418;7.572;2023-05-02T10:30:33;7.30;;;4.35;;
45887;SDS011;31595;51.418;7.572;2023-05-02T10:33:01;11.68;;;7.03;;
45887;SDS011;31595;51.418;7.572;2023-05-02T10:35:29;9.43;;;5.57;;
45887;SDS011;31595;51.418;7.572;2023-05-02T10:38:07;8.60;;;7.43;;
45887;SDS011;31595;51.418;7.572;2023-05-02T10:40:37;12.68;;;9.35;;
45887;SDS011;31595;51.418;7.572;2023-05-02T10:43:07;12.38;;;9.10;;
45887;SDS011;31595;51.418;7.572;2023-05-02T10:45:41;11.40;;;8.63;;
45887;SDS011;31595;51.418;7.572;2023-05-02T10:48:12;12.30;;;7.47;;
45887;SDS011;31595;51.418;7.572;2023-05-02T10:50:44;9.27;;;6.50;;
45887;SDS011;31595;51.418;7.572;2023-05-02T10:53:23;9.43;;;4.95;;
45887;SDS011;31595;51.418;7.572;2023-05-02T10:56:12;11.35;;;4.10;;
45887;SDS011;31595;51.418;7.572;2023-05-02T10:58:41;5.65;;;3.60;;
45887;SDS011;31595;51.418;7.572;2023-05-02T11:06:31;8.55;;;3.70;;
45887;SDS011;31595;51.418;7.572;2023-05-02T11:12:01;9.07;;;3.60;;
45887;SDS011;31595;51.418;7.572;2023-05-02T11:17:13;8.55;;;3.95;;
45887;SDS011;31595;51.418;7.572;2023-05-02T11:25:53;10.77;;;5.30;;
45887;SDS011;31595;51.418;7.572;2023-05-02T11:28:41;10.05;;;5.18;;
45887;SDS011;31595;51.418;7.572;2023-05-02T11:34:41;7.10;;;5.20;;
45887;SDS011;31595;51.418;7.572;2023-05-02T11:37:09;9.65;;;5.63;;
45887;SDS011;31595;51.418;7.572;2023-05-02T11:39:38;9.07;;;5.50;;
45887;SDS011;31595;51.418;7.572;2023-05-02T11:42:06;11.77;;;5.78;;
45887;SDS011;31595;51.418;7.572;2023-05-02T11:44:38;11.43;;;6.03;;
45887;SDS011;31595;51.418;7.572;2023-05-02T11:47:21;8.98;;;5.97;;
45887;SDS011;31595;51.418;7.572;2023-05-02T11:49:48;10.85;;;5.70;;
45887;SDS011;31595;51.418;7.572;2023-05-02T11:52:15;7.78;;;5.50;;
45887;SDS011;31595;51.418;7.572;2023-05-02T11:54:43;10.43;;;6.63;;
45887;SDS011;31595;51.418;7.572;2023-05-02T11:57:12;10.07;;;6.07;;
45887;SDS011;31595;51.418;7.572;2023-05-02T11:59:49;10.82;;;6.28;;
45887;SDS011;31595;51.418;7.572;2023-05-02T12:02:16;12.38;;;5.88;;
45887;SDS011;31595;51.418;7.572;2023-05-02T12:04:44;9.50;;;6.78;;
45887;SDS011;31595;51.418;7.572;2023-05-02T12:07:11;12.48;;;6.30;;
45887;SDS011;31595;51.418;7.572;2023-05-02T12:09:49;10.40;;;6.00;;
45887;SDS011;31595;51.418;7.572;2023-05-02T12:12:20;9.70;;;4.78;;
45887;SDS011;31595;51.418;7.572;2023-05-02T12:14:47;8.68;;;4.82;;
45887;SDS011;31595;51.418;7.572;2023-05-02T12:17:15;8.00;;;4.60;;
45887;SDS011;31595;51.418;7.572;2023-05-02T12:19:43;8.80;;;4.78;;
45887;SDS011;31595;51.418;7.572;2023-05-02T12:22:10;10.60;;;5.55;;
45887;SDS011;31595;51.418;7.572;2023-05-02T12:24:39;9.27;;;5.07;;
45887;SDS011;31595;51.418;7.572;2023-05-02T12:27:08;9.25;;;5.00;;
45887;SDS011;31595;51.418;7.572;2023-05-02T12:29:38;10.13;;;4.93;;
45887;SDS011;31595;51.418;7.572;2023-05-02T12:32:06;6.05;;;3.95;;
45887;SDS011;31595;51.418;7.572;2023-05-02T12:34:34;8.07;;;4.32;;
45887;SDS011;31595;51.418;7.572;2023-05-02T12:37:03;7.40;;;3.95;;
45887;SDS011;31595;51.418;7.572;2023-05-02T12:39:34;7.03;;;4.30;;
45887;SDS011;31595;51.418;7.572;2023-05-02T12:42:08;8.80;;;3.88;;
45887;SDS011;31595;51.418;7.572;2023-05-02T12:44:36;7.47;;;3.85;;
45887;SDS011;31595;51.418;7.572;2023-05-02T12:47:07;6.72;;;3.40;;
45887;SDS011;31595;51.418;7.572;2023-05-02T12:49:47;6.65;;;3.67;;
45887;SDS011;31595;51.418;7.572;2023-05-02T12:52:15;4.32;;;3.10;;
45887;SDS011;31595;51.418;7.572;2023-05-02T12:54:42;7.07;;;3.20;;
45887;SDS011;31595;51.418;7.572;2023-05-02T12:57:09;5.90;;;3.40;;
45887;SDS011;31595;51.418;7.572;2023-05-02T12:59:39;7.97;;;3.70;;
45887;SDS011;31595;51.418;7.572;2023-05-02T13:02:08;6.32;;;3.47;;
45887;SDS011;31595;51.418;7.572;2023-05-02T13:04:35;6.60;;;3.40;;
45887;SDS011;31595;51.418;7.572;2023-05-02T13:07:03;7.00;;;3.83;;
45887;SDS011;31595;51.418;7.572;2023-05-02T13:09:31;5.32;;;2.95;;
45887;SDS011;31595;51.418;7.572;2023-05-02T13:11:58;6.43;;;2.75;;
45887;SDS011;31595;51.418;7.572;2023-05-02T13:14:25;6.70;;;3.15;;
45887;SDS011;31595;51.418;7.572;2023-05-02T13:16:54;10.95;;;3.28;;
45887;SDS011;31595;51.418;7.572;2023-05-02T13:19:23;7.40;;;2.97;;
45887;SDS011;31595;51.418;7.572;2023-05-02T13:21:50;6.50;;;3.00;;
45887;SDS011;31595;51.418;7.572;2023-05-02T13:24:18;5.03;;;2.65;;
45887;SDS011;31595;51.418;7.572;2023-05-02T13:26:45;6.07;;;2.85;;
45887;SDS011;31595;51.418;7.572;2023-05-02T13:29:12;3.85;;;2.65;;
45887;SDS011;31595;51.418;7.572;2023-05-02T13:31:40;4.75;;;2.45;;
45887;SDS011;31595;51.418;7.572;2023-05-02T13:34:08;4.95;;;2.45;;
45887;SDS011;31595;51.418;7.572;2023-05-02T13:36:36;5.03;;;2.63;;
45887;SDS011;31595;51.418;7.572;2023-05-02T13:39:08;4.88;;;3.30;;
45887;SDS011;31595;51.418;7.572;2023-05-02T13:41:35;5.10;;;3.00;;
45887;SDS011;31595;51.418;7.572;2023-05-02T13:44:03;4.90;;;2.95;;
45887;SDS011;31595;51.418;7.572;2023-05-02T13:46:30;4.70;;;3.42;;
45887;SDS011;31595;51.418;7.572;2023-05-02T13:49:01;4.60;;;2.58;;
45887;SDS011;31595;51.418;7.572;2023-05-02T13:51:29;5.88;;;3.08;;
45887;SDS011;31595;51.418;7.572;2023-05-02T13:53:57;4.05;;;2.72;;
45887;SDS011;31595;51.418;7.572;2023-05-02T13:56:24;5.82;;;2.72;;
45887;SDS011;31595;51.418;7.572;2023-05-02T13:58:52;3.90;;;2.88;;
45887;SDS011;31595;51.418;7.572;2023-05-02T14:01:19;4.18;;;2.50;;
45887;SDS011;31595;51.418;7.572;2023-05-02T14:03:47;4.50;;;2.65;;
45887;SDS011;31595;51.418;7.572;2023-05-02T14:06:14;5.65;;;2.38;;
45887;SDS011;31595;51.418;7.572;2023-05-02T14:08:43;3.75;;;2.20;;
45887;SDS011;31595;51.418;7.572;2023-05-02T14:11:10;5.00;;;2.58;;
45887;SDS011;31595;51.418;7.572;2023-05-02T14:13:38;4.47;;;2.28;;
45887;SDS011;31595;51.418;7.572;2023-05-02T14:16:05;4.35;;;2.25;;
45887;SDS011;31595;51.418;7.572;2023-05-02T14:18:35;4.28;;;2.40;;
45887;SDS011;31595;51.418;7.572;2023-05-02T14:21:04;5.60;;;2.55;;
45887;SDS011;31595;51.418;7.572;2023-05-02T14:23:31;6.80;;;2.90;;
45887;SDS011;31595;51.418;7.572;2023-05-02T14:26:00;5.32;;;2.70;;
45887;SDS011;31595;51.418;7.572;2023-05-02T14:28:33;5.32;;;2.85;;
45887;SDS011;31595;51.418;7.572;2023-05-02T14:31:02;5.03;;;3.20;;
45887;SDS011;31595;51.418;7.572;2023-05-02T14:33:29;4.38;;;2.60;;
45887;SDS011;31595;51.418;7.572;2023-05-02T14:35:56;5.07;;;3.00;;
45887;SDS011;31595;51.418;7.572;2023-05-02T14:38:24;4.70;;;2.55;;
45887;SDS011;31595;51.418;7.572;2023-05-02T14:40:51;4.13;;;2.40;;
45887;SDS011;31595;51.418;7.572;2023-05-02T14:43:21;4.63;;;2.90;;
45887;SDS011;31595;51.418;7.572;2023-05-02T14:45:48;4.90;;;3.08;;
45887;SDS011;31595;51.418;7.572;2023-05-02T14:48:16;6.05;;;3.25;;
45887;SDS011;31595;51.418;7.572;2023-05-02T14:50:43;6.40;;;3.20;;
45887;SDS011;31595;51.418;7.572;2023-05-02T14:53:10;5.40;;;3.33;;
45887;SDS011;31595;51.418;7.572;2023-05-02T14:55:39;5.25;;;3.30;;
45887;SDS011;31595;51.418;7.572;2023-05-02T14:58:06;6.78;;;3.65;;
45887;SDS011;31595;51.418;7.572;2023-05-02T15:00:36;6.88;;;3.78;;
45887;SDS011;31595;51.418;7.572;2023-05-02T15:03:07;9.02;;;3.47;;
45887;SDS011;31595;51.418;7.572;2023-05-02T15:05:35;6.53;;;3.80;;
45887;SDS011;31595;51.418;7.572;2023-05-02T15:08:02;7.95;;;3.92;;
45887;SDS011;31595;51.418;7.572;2023-05-02T15:10:30;7.07;;;3.75;;
45887;SDS011;31595;51.418;7.572;2023-05-02T15:12:59;6.85;;;3.83;;
45887;SDS011;31595;51.418;7.572;2023-05-02T15:15:26;8.95;;;4.47;;
45887;SDS011;31595;51.418;7.572;2023-05-02T15:17:54;8.02;;;4.75;;